Curtiss, WI (54422)

5:11 AM CST on February 08, 2016 (GMT -0600)
Taylor County | | Change Station
CLOSE
Current Station
Airport
Location: Medford,
Elevation: 1470 ft
Nearby Weather Stations

Elev 1470 ft 45.10 °N, 90.30 °W | Updated 16 minutes ago

Snow
Snow
19 °F
Feels Like 8 °F
N
9
Wind Variable Wind from WNW

Today
High -- | Low -- °F
--% Chance of Precip.
Yesterday
High -- | Low -- °F
Precip. -- in
Pressure 29.58 in
Visibility 4.0 miles
Clouds Scattered Clouds 1600 ft
Mostly Cloudy 2100 ft
Overcast 3200 ft
Windchill 8 °F
Dew Point 17 °F
Humidity 93%
Rainfall 0.00 in
Snow Depth Not available.
7:13 AM 5:19 PM
Waning Crescent, 0% visible
METAR KMDZ 081055Z AUTO 29008KT 4SM -SN SCT016 BKN021 OVC032 M07/M08 A2958 RMK AO2 T10731082
Pressure 29.58 in
Visibility 4.0 miles
Clouds Scattered Clouds 1600 ft
Mostly Cloudy 2100 ft
Overcast 3200 ft
Windchill 8 °F
Dew Point 17 °F
Humidity 93%
Rainfall 0.00 in
Snow Depth Not available.
7:13 AM 5:19 PM
Waning Crescent, 0% visible
METAR KMDZ 081055Z AUTO 29008KT 4SM -SN SCT016 BKN021 OVC032 M07/M08 A2958 RMK AO2 T10731082

10-Day Weather Forecast

Almanac

Astronomy

Feb. 08, 2016 Rise Set
Actual Time
Civil Twilight
Nautical Twilight
Astronomical Twilight
Moon
Length of Visible Light
Length of Day
Tomorrow will be .
, % of the Moon is Illuminated

Today's Extremes

State Highs State Lows

Community

WunderPhotos

Upload Photos

1,891,420 photos uploaded!

WunderBlog® & News

Nearby

Air Quality

  Air Quality AQ Index Pollutant
Not available.

Snow Depth

Station Depth Elevation

Earthquake Activity

City Distance Mag. Time & Date
Minimum magnitude displayed is 2.5.

Coastal Water Temperatures

Place Temperature

Stations

Nearby Weather Stations

Station Location Temp. Windchill Dew Point Humidity Wind Precip. Elev Updated Type
                   

Watches & Warnings

There are currently no watches in effect.